^^
Saratoga-Weather Station Historical Data
Daily Summary for December 22, 2020 Units:  Metric    English   Both
Daily Weekly Monthly Yearly Custom
  High: Low: Average:
Temperature: 14 °C 10.9 °C 12.9 °C
Dew Point: 12.9 °C 10.3 °C 12.1 °C
Humidity: 96% 92% 95%
Wind Speed: 16.3km/h 0km/h 4.4km/h
Wind Gust: 29km/h - -
Wind- - WSW
Pressure: 1016.9 hPa 1013.9 hPa -
Precipitation: 10.9 mm    
Historical Graphs
 
 
Tabular Data for December 22, 2020
Time Temperature Dew Point Pressure Wind Wind Speed Wind Gust Humidity Rainfall Rate (Hourly) solar
00:03 10.9 °C 10.3 °C 1014.2 hPa WSW 3.2 km/h 14.5 km/h 96% 0.5 mm 0 W/m2
00:08 10.9 °C 10.3 °C 1013.9 hPa WNW 4.7 km/h 6.4 km/h 96% 0.5 mm 0 W/m2
00:13 10.9 °C 10.3 °C 1014.2 hPa SW 4.7 km/h 8 km/h 96% 0.5 mm 0 W/m2
00:18 11.1 °C 10.5 °C 1014.2 hPa NNW 14.3 km/h 14.5 km/h 96% 0.5 mm 0 W/m2
00:23 11.2 °C 10.6 °C 1014.2 hPa West 9.7 km/h 14.5 km/h 96% 0.5 mm 0 W/m2
00:28 11.3 °C 10.7 °C 1014.2 hPa West 3.2 km/h 8 km/h 96% 0.5 mm 0 W/m2
00:33 11.3 °C 10.7 °C 1014.2 hPa NE 1.4 km/h 8 km/h 96% 0.5 mm 0 W/m2
00:38 11.4 °C 10.8 °C 1014.2 hPa West 4.7 km/h 8 km/h 96% 0.2 mm 0 W/m2
00:55 11.7 °C 10.9 °C 1014.2 hPa SSE 3.2 km/h 8 km/h 95% 0.2 mm 0 W/m2
01:00 11.7 °C 10.9 °C 1014.2 hPa NW 6.4 km/h 9.7 km/h 95% 0.2 mm 0 W/m2
01:05 11.7 °C 10.9 °C 1014.2 hPa WNW 3.2 km/h 11.3 km/h 95% 0.2 mm 0 W/m2
01:10 11.7 °C 10.9 °C 1014.2 hPa NNW 4.7 km/h 19.3 km/h 95% 0.5 mm 0 W/m2
01:15 11.8 °C 11 °C 1014.2 hPa WSW 4.7 km/h 25.7 km/h 95% 0.5 mm 0 W/m2
01:20 11.8 °C 11 °C 1014.2 hPa NNW 1.4 km/h 11.3 km/h 95% 0.5 mm 0 W/m2
01:25 11.8 °C 11 °C 1014.2 hPa SSE 9.7 km/h 25.7 km/h 95% 0.8 mm 0 W/m2
01:30 11.8 °C 11 °C 1014.2 hPa NE 3.2 km/h 8 km/h 95% 0.8 mm 0 W/m2
01:35 11.8 °C 11 °C 1013.9 hPa SW 3.2 km/h 19.3 km/h 95% 1.0 mm 0 W/m2
01:40 11.8 °C 11 °C 1014.2 hPa WNW 3.2 km/h 12.9 km/h 95% 1.0 mm 0 W/m2
01:45 11.9 °C 11.1 °C 1014.2 hPa West 9.7 km/h 14.5 km/h 95% 1.0 mm 0 W/m2
01:50 12.1 °C 11.3 °C 1014.2 hPa NW 1.4 km/h 22.5 km/h 95% 1.0 mm 0 W/m2
01:55 12.1 °C 11.3 °C 1014.2 hPa WSW 13 km/h 22.5 km/h 95% 1.0 mm 0 W/m2
02:00 12.1 °C 11.3 °C 1014.2 hPa NNE 4.7 km/h 8 km/h 95% 1.0 mm 0 W/m2
02:05 12.1 °C 11.3 °C 1014.2 hPa West 4.7 km/h 14.5 km/h 95% 1.0 mm 0 W/m2
02:10 12.2 °C 11.4 °C 1014.6 hPa WSW 16.3 km/h 19.3 km/h 95% 0.8 mm 0 W/m2
02:15 12.2 °C 11.4 °C 1014.2 hPa NNE 1.4 km/h 17.7 km/h 95% 0.8 mm 0 W/m2
02:20 12.2 °C 11.4 °C 1014.2 hPa ESE 3.2 km/h 3.2 km/h 95% 0.5 mm 0 W/m2
02:25 12.2 °C 11.4 °C 1014.2 hPa East 6.4 km/h 17.7 km/h 95% 0.5 mm 0 W/m2
02:30 12.2 °C 11.4 °C 1014.6 hPa North 3.2 km/h 4.8 km/h 95% 0.5 mm 0 W/m2
02:35 12.2 °C 11.4 °C 1014.6 hPa South 4.7 km/h 17.7 km/h 95% 0.5 mm 0 W/m2
02:40 12.2 °C 11.4 °C 1014.6 hPa WNW 4.7 km/h 19.3 km/h 95% 0.5 mm 0 W/m2
02:45 12.2 °C 11.4 °C 1014.6 hPa SW 4.7 km/h 12.9 km/h 95% 0.5 mm 0 W/m2
02:50 12.2 °C 11.4 °C 1014.6 hPa West 6.4 km/h 17.7 km/h 95% 0.5 mm 0 W/m2
02:55 12.2 °C 11.4 °C 1014.6 hPa SW 7.9 km/h 16.1 km/h 95% 0.5 mm 0 W/m2
03:00 12.2 °C 11.4 °C 1014.6 hPa SW 6.4 km/h 6.4 km/h 95% 0.5 mm 0 W/m2
03:05 12.2 °C 11.4 °C 1014.2 hPa SSW 4.7 km/h 17.7 km/h 95% 0.5 mm 0 W/m2
03:10 12.2 °C 11.4 °C 1014.6 hPa WNW 7.9 km/h 17.7 km/h 95% 0.5 mm 0 W/m2
03:15 12.2 °C 11.4 °C 1014.6 hPa NNW 4.7 km/h 11.3 km/h 95% 0.5 mm 0 W/m2
03:20 12.2 °C 11.4 °C 1014.6 hPa WNW 6.4 km/h 12.9 km/h 95% 0.5 mm 0 W/m2
03:25 12.2 °C 11.4 °C 1014.2 hPa West 4.7 km/h 12.9 km/h 95% 0.5 mm 0 W/m2
03:30 12.3 °C 11.5 °C 1014.6 hPa North 1.4 km/h 9.7 km/h 95% 0.5 mm 0 W/m2
03:35 12.3 °C 11.5 °C 1014.6 hPa NW 6.4 km/h 6.4 km/h 95% 0.5 mm 0 W/m2
03:40 12.3 °C 11.5 °C 1014.6 hPa East 4.7 km/h 19.3 km/h 95% 0.5 mm 0 W/m2
03:45 12.3 °C 11.5 °C 1014.6 hPa West 3.2 km/h 14.5 km/h 95% 0.5 mm 0 W/m2
03:51 12.3 °C 11.5 °C 1014.6 hPa WSW 4.7 km/h 19.3 km/h 95% 0.5 mm 0 W/m2
03:56 12.3 °C 11.5 °C 1014.6 hPa NW 1.4 km/h 12.9 km/h 95% 0.5 mm 0 W/m2
04:01 12.3 °C 11.5 °C 1014.6 hPa WSW 11.1 km/h 17.7 km/h 95% 0.5 mm 0 W/m2
04:06 12.3 °C 11.5 °C 1014.6 hPa West 3.2 km/h 14.5 km/h 95% 0.5 mm 0 W/m2
04:11 12.3 °C 11.5 °C 1014.6 hPa South 1.4 km/h 24.1 km/h 95% 0.5 mm 0 W/m2
04:16 12.3 °C 11.5 °C 1014.6 hPa SW 3.2 km/h 12.9 km/h 95% 0.5 mm 0 W/m2
04:21 12.3 °C 11.5 °C 1014.6 hPa SW 7.9 km/h 29 km/h 95% 0.8 mm 0 W/m2
04:26 12.3 °C 11.5 °C 1014.6 hPa NW 3.2 km/h 8 km/h 95% 0.5 mm 0 W/m2
04:31 12.3 °C 11.5 °C 1014.6 hPa West 9.7 km/h 16.1 km/h 95% 0.5 mm 0 W/m2
04:36 12.3 °C 11.5 °C 1014.2 hPa North 3.2 km/h 12.9 km/h 95% 0.5 mm 0 W/m2
04:41 12.3 °C 11.5 °C 1014.6 hPa SSE 4.7 km/h 11.3 km/h 95% 0.8 mm 0 W/m2
04:46 12.3 °C 11.5 °C 1014.6 hPa NW 4.7 km/h 12.9 km/h 95% 0.8 mm 0 W/m2
04:51 12.4 °C 11.6 °C 1014.6 hPa NW 4.7 km/h 17.7 km/h 95% 0.8 mm 0 W/m2
04:56 12.4 °C 11.6 °C 1014.6 hPa West 3.2 km/h 14.5 km/h 95% 0.5 mm 0 W/m2
05:01 12.4 °C 11.6 °C 1014.6 hPa West 3.2 km/h 8 km/h 95% 0.5 mm 0 W/m2
05:06 12.4 °C 11.6 °C 1014.2 hPa WSW 4.7 km/h 17.7 km/h 95% 0.8 mm 0 W/m2
05:11 12.4 °C 11.6 °C 1014.2 hPa WNW 13 km/h 16.1 km/h 95% 1.0 mm 0 W/m2
05:16 12.5 °C 11.7 °C 1014.2 hPa WNW 3.2 km/h 17.7 km/h 95% 1.0 mm 0 W/m2
05:21 12.5 °C 11.7 °C 1014.6 hPa South 3.2 km/h 11.3 km/h 95% 0.8 mm 0 W/m2
05:26 12.5 °C 11.7 °C 1014.6 hPa NW 6.4 km/h 17.7 km/h 95% 1.0 mm 0 W/m2
05:31 12.6 °C 11.8 °C 1014.6 hPa NNW 3.2 km/h 8 km/h 95% 1.0 mm 0 W/m2
05:36 12.6 °C 11.8 °C 1014.6 hPa West 3.2 km/h 20.9 km/h 95% 1.5 mm 0 W/m2
05:56 12.5 °C 11.7 °C 1014.6 hPa South 9.7 km/h 16.1 km/h 95% 1.8 mm 0 W/m2
06:01 12.6 °C 11.8 °C 1014.6 hPa WNW 13 km/h 12.9 km/h 95% 1.5 mm 0 W/m2
06:06 12.6 °C 11.8 °C 1014.6 hPa NW 1.4 km/h 11.3 km/h 95% 1.5 mm 0 W/m2
06:11 12.6 °C 11.8 °C 1014.6 hPa WNW 13 km/h 14.5 km/h 95% 1.5 mm 0 W/m2
06:16 12.6 °C 11.8 °C 1014.6 hPa WSW 4.7 km/h 11.3 km/h 95% 1.8 mm 0 W/m2
06:21 12.6 °C 11.8 °C 1014.6 hPa West 3.2 km/h 19.3 km/h 95% 2.0 mm 0 W/m2
06:26 12.6 °C 11.8 °C 1014.6 hPa WSW 14.3 km/h 17.7 km/h 95% 1.8 mm 0 W/m2
06:46 12.6 °C 11.8 °C 1014.6 hPa NNW 3.2 km/h 9.7 km/h 95% 1.0 mm 0 W/m2
06:51 12.6 °C 11.8 °C 1014.6 hPa NNW 3.2 km/h 12.9 km/h 95% 1.3 mm 0 W/m2
06:56 12.6 °C 11.8 °C 1014.6 hPa North 4.7 km/h 14.5 km/h 95% 1.3 mm 0 W/m2
07:01 12.6 °C 11.8 °C 1014.6 hPa NNW 4.7 km/h 14.5 km/h 95% 1.3 mm 0 W/m2
07:06 12.6 °C 11.8 °C 1014.6 hPa North 4.7 km/h 14.5 km/h 95% 1.3 mm 0 W/m2
07:25 12.6 °C 11.8 °C 1014.6 hPa North 6.4 km/h 9.7 km/h 95% 0.5 mm 0 W/m2
07:30 12.7 °C 11.9 °C 1014.9 hPa WSW 16.3 km/h 16.1 km/h 95% 0.8 mm 0 W/m2
07:35 12.7 °C 11.9 °C 1014.6 hPa WNW 13 km/h 16.1 km/h 95% 0.8 mm 0 W/m2
07:40 12.7 °C 11.9 °C 1014.9 hPa SSW 6.4 km/h 14.5 km/h 95% 0.8 mm 0 W/m2
07:45 12.7 °C 11.9 °C 1014.9 hPa SSE 1.4 km/h 6.4 km/h 95% 0.8 mm 0 W/m2
07:50 12.7 °C 11.9 °C 1014.9 hPa NW 6.4 km/h 9.7 km/h 95% 0.5 mm 0 W/m2
07:55 12.7 °C 11.9 °C 1014.9 hPa SW 6.4 km/h 14.5 km/h 95% 0.5 mm 0 W/m2
08:00 12.7 °C 11.9 °C 1014.9 hPa North 3.2 km/h 12.9 km/h 95% 0.5 mm 0 W/m2
08:05 12.7 °C 11.9 °C 1015.2 hPa NNW 4.7 km/h 12.9 km/h 95% 0.2 mm 0 W/m2
08:10 12.7 °C 11.9 °C 1015.2 hPa NW 6.4 km/h 11.3 km/h 95% 0.5 mm 0 W/m2
08:15 12.7 °C 11.9 °C 1015.2 hPa NW 4.7 km/h 9.7 km/h 95% 0.5 mm 0 W/m2
08:20 12.7 °C 11.9 °C 1015.2 hPa West 3.2 km/h 16.1 km/h 95% 0.5 mm 0 W/m2
08:25 12.7 °C 11.9 °C 1015.2 hPa NNW 6.4 km/h 14.5 km/h 95% 0.5 mm 0 W/m2
08:30 12.6 °C 11.8 °C 1015.2 hPa WNW 3.2 km/h 16.1 km/h 95% 0.2 mm 0 W/m2
08:35 12.6 °C 11.8 °C 1015.2 hPa WNW 4.7 km/h 9.7 km/h 95% 0.2 mm 0 W/m2
08:40 12.7 °C 11.9 °C 1015.2 hPa Calm   14.5 km/h 95% 0.2 mm 5 W/m2
08:45 12.7 °C 11.9 °C 1015.2 hPa NNW 3.2 km/h 16.1 km/h 95% 0.2 mm 11 W/m2
08:50 12.7 °C 11.9 °C 1015.2 hPa ESE 6.4 km/h 12.9 km/h 95% 0.2 mm 12 W/m2
08:55 12.7 °C 11.9 °C 1015.2 hPa WSW 13 km/h 20.9 km/h 95% 0.2 mm 12 W/m2
09:00 12.7 °C 11.9 °C 1015.2 hPa West 3.2 km/h 6.4 km/h 95% 0.2 mm 12 W/m2
09:05 12.7 °C 11.9 °C 1015.6 hPa North 1.4 km/h 20.9 km/h 95% 0.2 mm 12 W/m2
09:10 12.7 °C 11.9 °C 1015.2 hPa WNW 11.1 km/h 12.9 km/h 95% 0.0 mm 12 W/m2
09:15 12.7 °C 11.9 °C 1015.6 hPa NW 6.4 km/h 8 km/h 95% 0.2 mm 14 W/m2
09:20 12.7 °C 11.9 °C 1015.6 hPa WSW 7.9 km/h 11.3 km/h 95% 0.2 mm 16 W/m2
09:25 12.7 °C 11.9 °C 1015.6 hPa West 1.4 km/h 14.5 km/h 95% 0.2 mm 19 W/m2
09:46 12.7 °C 11.9 °C 1015.9 hPa WNW 1.4 km/h 12.9 km/h 95% 0.2 mm 26 W/m2
09:51 12.7 °C 11.9 °C 1015.9 hPa WNW 7.9 km/h 14.5 km/h 95% 0.2 mm 30 W/m2
09:56 12.8 °C 12 °C 1015.9 hPa NW 4.7 km/h 12.9 km/h 95% 0.2 mm 33 W/m2
10:01 12.8 °C 12 °C 1015.9 hPa Calm   9.7 km/h 95% 0.2 mm 40 W/m2
10:06 12.8 °C 12 °C 1016.3 hPa West 9.7 km/h 22.5 km/h 95% 0.2 mm 30 W/m2
10:11 12.8 °C 11.9 °C 1016.3 hPa West 11.1 km/h 14.5 km/h 94% 0.0 mm 23 W/m2
10:16 12.9 °C 12 °C 1016.3 hPa NNW 4.7 km/h 14.5 km/h 94% 0.0 mm 33 W/m2
10:21 12.9 °C 12 °C 1016.3 hPa Calm   6.4 km/h 94% 0.0 mm 25 W/m2
10:26 12.9 °C 12 °C 1016.3 hPa WSW 4.7 km/h 14.5 km/h 94% 0.0 mm 21 W/m2
10:31 12.9 °C 12 °C 1016.3 hPa WNW 4.7 km/h 6.4 km/h 94% 0.0 mm 44 W/m2
10:36 13 °C 12.1 °C 1016.3 hPa NNW 6.4 km/h 16.1 km/h 94% 0.0 mm 60 W/m2
10:41 13 °C 12.1 °C 1016.6 hPa West 1.4 km/h 4.8 km/h 94% 0.0 mm 53 W/m2
10:46 13 °C 12.1 °C 1016.6 hPa WSW 1.4 km/h 16.1 km/h 94% 0.0 mm 70 W/m2
10:51 13.1 °C 12.2 °C 1016.6 hPa Calm   14.5 km/h 94% 0.0 mm 32 W/m2
10:56 13 °C 12.1 °C 1016.6 hPa NE 4.7 km/h 4.8 km/h 94% 0.0 mm 49 W/m2
11:01 12.9 °C 12 °C 1016.9 hPa East 3.2 km/h 3.2 km/h 94% 0.0 mm 30 W/m2
11:06 12.9 °C 12 °C 1016.6 hPa West 1.4 km/h 14.5 km/h 94% 0.0 mm 21 W/m2
11:11 12.9 °C 12.1 °C 1016.9 hPa West 1.4 km/h 6.4 km/h 95% 0.0 mm 21 W/m2
11:16 12.8 °C 12 °C 1016.9 hPa WNW 1.4 km/h 9.7 km/h 95% 0.0 mm 23 W/m2
11:21 12.8 °C 12 °C 1016.6 hPa WNW 6.4 km/h 16.1 km/h 95% 0.0 mm 39 W/m2
11:26 12.8 °C 12 °C 1016.6 hPa SSW 3.2 km/h 11.3 km/h 95% 0.0 mm 47 W/m2
11:31 12.8 °C 12 °C 1016.6 hPa NW 6.4 km/h 16.1 km/h 95% 0.0 mm 39 W/m2
11:36 12.8 °C 12 °C 1016.6 hPa NW 7.9 km/h 11.3 km/h 95% 0.0 mm 49 W/m2
11:41 12.8 °C 12 °C 1016.6 hPa WNW 4.7 km/h 4.8 km/h 95% 0.2 mm 62 W/m2
11:46 12.8 °C 12 °C 1016.6 hPa WNW 1.4 km/h 11.3 km/h 95% 0.2 mm 54 W/m2
11:51 12.9 °C 12.1 °C 1016.6 hPa SE 1.4 km/h 11.3 km/h 95% 0.2 mm 53 W/m2
11:56 12.9 °C 12.1 °C 1016.6 hPa WSW 3.2 km/h 17.7 km/h 95% 0.2 mm 56 W/m2
12:01 12.9 °C 12.1 °C 1016.6 hPa WSW 6.4 km/h 12.9 km/h 95% 0.2 mm 67 W/m2
12:06 12.9 °C 12.1 °C 1016.6 hPa SE 4.7 km/h 17.7 km/h 95% 0.5 mm 65 W/m2
12:11 12.9 °C 12.1 °C 1016.6 hPa Calm   6.4 km/h 95% 0.5 mm 60 W/m2
12:16 12.9 °C 12.1 °C 1016.6 hPa SSW 1.4 km/h 6.4 km/h 95% 0.5 mm 58 W/m2
12:21 12.9 °C 12.1 °C 1016.6 hPa West 9.7 km/h 11.3 km/h 95% 0.5 mm 44 W/m2
12:26 12.9 °C 12.1 °C 1016.6 hPa Calm   8 km/h 95% 0.5 mm 33 W/m2
12:31 12.9 °C 12.1 °C 1016.6 hPa North 3.2 km/h 4.8 km/h 95% 0.5 mm 42 W/m2
12:36 12.9 °C 12.1 °C 1016.6 hPa NW 6.4 km/h 12.9 km/h 95% 0.5 mm 42 W/m2
12:41 12.9 °C 12.1 °C 1016.6 hPa NW 3.2 km/h 11.3 km/h 95% 0.5 mm 67 W/m2
12:46 12.9 °C 12.1 °C 1016.6 hPa WNW 4.7 km/h 6.4 km/h 95% 0.5 mm 65 W/m2
12:51 12.9 °C 12.1 °C 1016.6 hPa WNW 1.4 km/h 11.3 km/h 95% 0.5 mm 69 W/m2
12:56 13 °C 12.2 °C 1016.6 hPa WNW 3.2 km/h 4.8 km/h 95% 0.5 mm 65 W/m2
13:01 13 °C 12.2 °C 1016.6 hPa West 3.2 km/h 4.8 km/h 95% 0.5 mm 54 W/m2
13:06 13 °C 12.2 °C 1016.6 hPa WNW 3.2 km/h 11.3 km/h 95% 0.5 mm 53 W/m2
13:11 13 °C 12.2 °C 1016.3 hPa WSW 7.9 km/h 11.3 km/h 95% 0.5 mm 54 W/m2
13:16 13.1 °C 12.3 °C 1016.3 hPa NNW 4.7 km/h 9.7 km/h 95% 0.5 mm 63 W/m2
13:21 13.1 °C 12.3 °C 1016.3 hPa SSW 9.7 km/h 9.7 km/h 95% 0.5 mm 56 W/m2
13:26 13.1 °C 12.3 °C 1016.3 hPa NW 6.4 km/h 6.4 km/h 95% 0.5 mm 49 W/m2
13:31 13.1 °C 12.3 °C 1016.3 hPa SSW 9.7 km/h 19.3 km/h 95% 0.5 mm 53 W/m2
13:36 13.1 °C 12.3 °C 1016.3 hPa NW 3.2 km/h 6.4 km/h 95% 0.5 mm 47 W/m2
13:41 13.1 °C 12.3 °C 1016.3 hPa WNW 3.2 km/h 17.7 km/h 95% 0.5 mm 51 W/m2
13:46 13.2 °C 12.4 °C 1016.3 hPa West 1.4 km/h 4.8 km/h 95% 0.2 mm 70 W/m2
13:51 13.2 °C 12.4 °C 1016.3 hPa SW 6.4 km/h 9.7 km/h 95% 0.2 mm 56 W/m2
13:56 13.2 °C 12.4 °C 1016.3 hPa WSW 4.7 km/h 14.5 km/h 95% 0.5 mm 70 W/m2
14:01 13.3 °C 12.5 °C 1016.3 hPa NW 11.1 km/h 12.9 km/h 95% 0.5 mm 54 W/m2
14:06 13.3 °C 12.5 °C 1016.3 hPa NW 9.7 km/h 12.9 km/h 95% 0.5 mm 47 W/m2
14:11 13.3 °C 12.5 °C 1016.3 hPa NW 3.2 km/h 4.8 km/h 95% 0.5 mm 42 W/m2
14:16 13.3 °C 12.5 °C 1015.9 hPa SSE 4.7 km/h 8 km/h 95% 0.5 mm 37 W/m2
14:21 13.3 °C 12.5 °C 1015.9 hPa South 3.2 km/h 8 km/h 95% 0.5 mm 33 W/m2
14:26 13.3 °C 12.5 °C 1015.9 hPa North 3.2 km/h 4.8 km/h 95% 0.5 mm 33 W/m2
14:31 13.2 °C 12.4 °C 1015.9 hPa NE 1.4 km/h 12.9 km/h 95% 0.5 mm 42 W/m2
14:36 13.3 °C 12.7 °C 1015.9 hPa NNW 4.7 km/h 4.8 km/h 96% 0.5 mm 32 W/m2
14:41 13.3 °C 12.5 °C 1015.9 hPa NNE 1.4 km/h 8 km/h 95% 0.5 mm 26 W/m2
14:46 13.3 °C 12.7 °C 1015.9 hPa NW 1.4 km/h 16.1 km/h 96% 0.5 mm 25 W/m2
14:51 13.3 °C 12.7 °C 1015.9 hPa North 4.7 km/h 4.8 km/h 96% 0.8 mm 21 W/m2
14:56 13.3 °C 12.7 °C 1015.9 hPa NW 1.4 km/h 4.8 km/h 96% 0.5 mm 16 W/m2
15:01 13.3 °C 12.7 °C 1015.9 hPa West 1.4 km/h 17.7 km/h 96% 0.5 mm 16 W/m2
15:06 13.3 °C 12.7 °C 1016.3 hPa WNW 4.7 km/h 12.9 km/h 96% 0.5 mm 9 W/m2
15:11 13.3 °C 12.5 °C 1016.3 hPa WSW 4.7 km/h 17.7 km/h 95% 0.5 mm 12 W/m2
15:16 13.3 °C 12.5 °C 1016.3 hPa Calm   4.8 km/h 95% 0.5 mm 18 W/m2
15:21 13.3 °C 12.5 °C 1016.3 hPa SE 6.4 km/h 11.3 km/h 95% 0.5 mm 18 W/m2
15:39 13.4 °C 12.6 °C 1016.3 hPa North 3.2 km/h 9.7 km/h 95% 0.5 mm 14 W/m2
15:44 13.4 °C 12.6 °C 1016.3 hPa WSW 1.4 km/h 11.3 km/h 95% 0.5 mm 16 W/m2
15:49 13.4 °C 12.6 °C 1016.3 hPa SW 1.4 km/h 4.8 km/h 95% 0.5 mm 19 W/m2
15:54 13.4 °C 12.6 °C 1016.3 hPa NW 1.4 km/h 6.4 km/h 95% 0.8 mm 16 W/m2
15:59 13.4 °C 12.6 °C 1016.6 hPa West 9.7 km/h 14.5 km/h 95% 0.8 mm 21 W/m2
16:04 13.4 °C 12.6 °C 1016.3 hPa NNW 4.7 km/h 12.9 km/h 95% 0.8 mm 12 W/m2
16:09 13.4 °C 12.6 °C 1016.3 hPa WNW 4.7 km/h 6.4 km/h 95% 0.8 mm 11 W/m2
16:14 13.4 °C 12.6 °C 1016.3 hPa NW 1.4 km/h 6.4 km/h 95% 0.8 mm 7 W/m2
16:19 13.4 °C 12.6 °C 1016.3 hPa NE 1.4 km/h 8 km/h 95% 0.5 mm 7 W/m2
16:24 13.4 °C 12.6 °C 1016.3 hPa WSW 13 km/h 16.1 km/h 95% 0.8 mm 5 W/m2
16:29 13.5 °C 12.7 °C 1016.3 hPa SSW 1.4 km/h 11.3 km/h 95% 0.8 mm 0 W/m2
16:34 13.5 °C 12.7 °C 1016.3 hPa WSW 1.4 km/h 4.8 km/h 95% 0.8 mm 0 W/m2
16:39 13.5 °C 12.7 °C 1016.3 hPa WNW 3.2 km/h 12.9 km/h 95% 0.8 mm 0 W/m2
16:44 13.6 °C 12.8 °C 1016.3 hPa Calm   4.8 km/h 95% 0.5 mm 0 W/m2
16:49 13.6 °C 12.8 °C 1016.3 hPa NW 1.4 km/h 12.9 km/h 95% 0.5 mm 0 W/m2
16:54 13.5 °C 12.7 °C 1016.3 hPa ENE 1.4 km/h 3.2 km/h 95% 0.5 mm 0 W/m2
16:59 13.4 °C 12.6 °C 1016.3 hPa Calm   4.8 km/h 95% 0.5 mm 0 W/m2
17:04 13.4 °C 12.6 °C 1016.3 hPa SE 3.2 km/h 9.7 km/h 95% 0.5 mm 0 W/m2
17:09 13.4 °C 12.6 °C 1016.6 hPa WSW 3.2 km/h 9.7 km/h 95% 0.5 mm 0 W/m2
17:14 13.4 °C 12.6 °C 1016.3 hPa North 1.4 km/h 4.8 km/h 95% 0.5 mm 0 W/m2
17:19 13.4 °C 12.6 °C 1016.3 hPa East 1.4 km/h 4.8 km/h 95% 0.5 mm 0 W/m2
17:24 13.4 °C 12.6 °C 1016.3 hPa West 1.4 km/h 6.4 km/h 95% 0.5 mm 0 W/m2
17:29 13.4 °C 12.6 °C 1016.3 hPa NNW 9.7 km/h 12.9 km/h 95% 0.5 mm 0 W/m2
17:34 13.5 °C 12.7 °C 1016.3 hPa Calm   14.5 km/h 95% 0.5 mm 0 W/m2
17:39 13.5 °C 12.7 °C 1016.3 hPa SSW 4.7 km/h 19.3 km/h 95% 0.5 mm 0 W/m2
17:56 13.5 °C 12.7 °C 1016.3 hPa WSW 3.2 km/h 9.7 km/h 95% 0.5 mm 0 W/m2
18:01 13.5 °C 12.7 °C 1016.3 hPa NNW 3.2 km/h 4.8 km/h 95% 0.2 mm 0 W/m2
18:06 13.5 °C 12.7 °C 1016.3 hPa Calm   9.7 km/h 95% 0.2 mm 0 W/m2
18:11 13.5 °C 12.7 °C 1016.3 hPa NE 4.7 km/h 19.3 km/h 95% 0.5 mm 0 W/m2
18:16 13.6 °C 12.8 °C 1016.3 hPa Calm   4.8 km/h 95% 0.5 mm 0 W/m2
18:21 13.6 °C 12.8 °C 1016.3 hPa North 4.7 km/h 6.4 km/h 95% 0.5 mm 0 W/m2
18:26 13.6 °C 12.8 °C 1016.3 hPa NW 6.4 km/h 8 km/h 95% 0.5 mm 0 W/m2
18:31 13.6 °C 12.8 °C 1016.3 hPa NNE 1.4 km/h 4.8 km/h 95% 0.5 mm 0 W/m2
18:36 13.6 °C 12.8 °C 1016.3 hPa Calm   3.2 km/h 95% 0.5 mm 0 W/m2
18:41 13.6 °C 12.8 °C 1016.3 hPa WSW 1.4 km/h 6.4 km/h 95% 0.5 mm 0 W/m2
18:46 13.6 °C 12.8 °C 1016.3 hPa NW 4.7 km/h 4.8 km/h 95% 0.5 mm 0 W/m2
18:51 13.5 °C 12.7 °C 1016.3 hPa Calm     95% 0.5 mm 0 W/m2
18:56 13.4 °C 12.6 °C 1015.9 hPa North 1.4 km/h 4.8 km/h 95% 0.5 mm 0 W/m2
19:01 13.4 °C 12.6 °C 1015.9 hPa NNW 1.4 km/h 4.8 km/h 95% 0.5 mm 0 W/m2
19:06 13.4 °C 12.6 °C 1015.9 hPa West 3.2 km/h 3.2 km/h 95% 0.5 mm 0 W/m2
19:11 13.4 °C 12.6 °C 1015.9 hPa Calm   3.2 km/h 95% 0.5 mm 0 W/m2
19:16 13.4 °C 12.6 °C 1016.3 hPa SSW 1.4 km/h 9.7 km/h 95% 0.5 mm 0 W/m2
19:21 13.4 °C 12.6 °C 1016.3 hPa West 4.7 km/h 24.1 km/h 95% 0.5 mm 0 W/m2
19:26 13.5 °C 12.7 °C 1015.9 hPa WNW 3.2 km/h 12.9 km/h 95% 0.8 mm 0 W/m2
19:31 13.5 °C 12.7 °C 1015.9 hPa SSW 1.4 km/h 24.1 km/h 95% 0.8 mm 0 W/m2
19:36 13.6 °C 12.8 °C 1016.3 hPa NW 4.7 km/h 14.5 km/h 95% 0.8 mm 0 W/m2
19:41 13.6 °C 12.8 °C 1015.9 hPa NNW 6.4 km/h 17.7 km/h 95% 0.8 mm 0 W/m2
19:46 13.7 °C 12.9 °C 1016.3 hPa West 6.4 km/h 12.9 km/h 95% 0.8 mm 0 W/m2
19:51 13.7 °C 12.8 °C 1015.9 hPa Calm   8 km/h 94% 0.5 mm 0 W/m2
19:56 13.6 °C 12.7 °C 1015.9 hPa WSW 1.4 km/h 14.5 km/h 94% 0.5 mm 0 W/m2
20:01 13.6 °C 12.7 °C 1015.9 hPa North 1.4 km/h 4.8 km/h 94% 0.5 mm 0 W/m2
20:06 13.6 °C 12.7 °C 1015.9 hPa NW 6.4 km/h 11.3 km/h 94% 0.5 mm 0 W/m2
20:11 13.6 °C 12.7 °C 1015.9 hPa NE 4.7 km/h 12.9 km/h 94% 0.5 mm 0 W/m2
20:16 13.6 °C 12.7 °C 1015.9 hPa SSW 6.4 km/h 12.9 km/h 94% 0.5 mm 0 W/m2
20:21 13.7 °C 12.8 °C 1015.9 hPa West 3.2 km/h 14.5 km/h 94% 0.2 mm 0 W/m2
20:26 13.7 °C 12.8 °C 1015.9 hPa WNW 3.2 km/h 12.9 km/h 94% 0.0 mm 0 W/m2
20:31 13.7 °C 12.8 °C 1016.3 hPa SW 1.4 km/h 8 km/h 94% 0.0 mm 0 W/m2
20:36 13.7 °C 12.8 °C 1015.9 hPa NNW 4.7 km/h 8 km/h 94% 0.0 mm 0 W/m2
20:41 13.7 °C 12.8 °C 1016.3 hPa NNW 3.2 km/h 6.4 km/h 94% 0.0 mm 0 W/m2
21:00 13.5 °C 12.6 °C 1015.9 hPa WNW 6.4 km/h 6.4 km/h 94% 0.0 mm 0 W/m2
21:06 13.5 °C 12.6 °C 1015.9 hPa NW 4.7 km/h 16.1 km/h 94% 0.0 mm 0 W/m2
21:11 13.5 °C 12.6 °C 1015.9 hPa NW 1.4 km/h 4.8 km/h 94% 0.0 mm 0 W/m2
21:16 13.6 °C 12.7 °C 1015.9 hPa North 3.2 km/h 16.1 km/h 94% 0.0 mm 0 W/m2
21:21 13.6 °C 12.7 °C 1015.9 hPa West 9.7 km/h 20.9 km/h 94% 0.0 mm 0 W/m2
21:26 13.6 °C 12.7 °C 1015.9 hPa WSW 4.7 km/h 14.5 km/h 94% 0.0 mm 0 W/m2
21:31 13.6 °C 12.7 °C 1015.9 hPa NW 9.7 km/h 20.9 km/h 94% 0.0 mm 0 W/m2
21:36 13.6 °C 12.7 °C 1015.9 hPa WNW 1.4 km/h 11.3 km/h 94% 0.0 mm 0 W/m2
21:41 13.6 °C 12.7 °C 1015.9 hPa NNW 1.4 km/h 14.5 km/h 94% 0.0 mm 0 W/m2
21:46 13.6 °C 12.7 °C 1015.9 hPa NW 6.4 km/h 12.9 km/h 94% 0.0 mm 0 W/m2
21:51 13.6 °C 12.7 °C 1015.9 hPa WNW 11.1 km/h 14.5 km/h 94% 0.0 mm 0 W/m2
21:56 13.6 °C 12.7 °C 1016.3 hPa WNW 4.7 km/h 8 km/h 94% 0.0 mm 0 W/m2
22:01 13.6 °C 12.7 °C 1015.9 hPa ESE 9.7 km/h 14.5 km/h 94% 0.0 mm 0 W/m2
22:06 13.6 °C 12.7 °C 1015.6 hPa ESE 3.2 km/h 4.8 km/h 94% 0.0 mm 0 W/m2
22:11 13.6 °C 12.7 °C 1015.6 hPa NNW 3.2 km/h 14.5 km/h 94% 0.0 mm 0 W/m2
22:16 13.5 °C 12.6 °C 1015.6 hPa West 1.4 km/h 6.4 km/h 94% 0.0 mm 0 W/m2
22:21 13.5 °C 12.7 °C 1015.6 hPa Calm   4.8 km/h 95% 0.0 mm 0 W/m2
22:26 13.5 °C 12.7 °C 1015.6 hPa SE 1.4 km/h 4.8 km/h 95% 0.0 mm 0 W/m2
22:31 13.5 °C 12.7 °C 1015.6 hPa West 4.7 km/h 11.3 km/h 95% 0.0 mm 0 W/m2
22:36 13.6 °C 12.8 °C 1015.6 hPa NW 6.4 km/h 11.3 km/h 95% 0.0 mm 0 W/m2
22:41 13.6 °C 12.7 °C 1015.6 hPa Calm   6.4 km/h 94% 0.0 mm 0 W/m2
22:46 13.6 °C 12.7 °C 1015.6 hPa WNW 3.2 km/h 3.2 km/h 94% 0.0 mm 0 W/m2
22:51 13.6 °C 12.7 °C 1015.6 hPa Calm   1.6 km/h 94% 0.0 mm 0 W/m2
22:56 13.6 °C 12.7 °C 1015.6 hPa Calm   12.9 km/h 94% 0.0 mm 0 W/m2
23:01 13.7 °C 12.8 °C 1015.6 hPa ENE 3.2 km/h 9.7 km/h 94% 0.0 mm 0 W/m2
23:06 13.7 °C 12.8 °C 1015.6 hPa NNE 3.2 km/h 12.9 km/h 94% 0.0 mm 0 W/m2
23:11 13.8 °C 12.9 °C 1015.6 hPa NNE 6.4 km/h 11.3 km/h 94% 0.0 mm 0 W/m2
23:16 13.8 °C 12.9 °C 1015.6 hPa North 3.2 km/h 4.8 km/h 94% 0.0 mm 0 W/m2
23:21 13.8 °C 12.9 °C 1015.6 hPa West 1.4 km/h 9.7 km/h 94% 0.0 mm 0 W/m2
23:26 13.8 °C 12.9 °C 1015.6 hPa NW 7.9 km/h 9.7 km/h 94% 0.0 mm 0 W/m2
23:31 13.9 °C 12.8 °C 1015.6 hPa West 1.4 km/h 17.7 km/h 93% 0.0 mm 0 W/m2
23:36 13.9 °C 12.8 °C 1015.6 hPa WNW 3.2 km/h 19.3 km/h 93% 0.0 mm 0 W/m2
23:41 14 °C 12.9 °C 1015.6 hPa WSW 6.4 km/h 6.4 km/h 93% 0.0 mm 0 W/m2
23:46 14 °C 12.7 °C 1015.6 hPa ENE 1.4 km/h 19.3 km/h 92% 0.0 mm 0 W/m2
23:51 14 °C 12.7 °C 1015.6 hPa WNW 4.7 km/h 9.7 km/h 92% 0.0 mm 0 W/m2
23:56 14 °C 12.7 °C 1015.6 hPa ESE 6.4 km/h 6.4 km/h 92% 0.0 mm 0 W/m2
Juneau County Weather
Compliments of Weather Underground - 4 mb